sensor_id;sensor_type;location;lat;lon;timestamp;P1;durP1;ratioP1;P2;durP2;ratioP2
11839;SDS011;5979;50.800;4.904;2023-05-20T00:01:52;3.78;;;3.38;;
11839;SDS011;5979;50.800;4.904;2023-05-20T00:04:18;4.43;;;3.90;;
11839;SDS011;5979;50.800;4.904;2023-05-20T00:06:44;4.63;;;4.00;;
11839;SDS011;5979;50.800;4.904;2023-05-20T00:09:10;5.38;;;4.25;;
11839;SDS011;5979;50.800;4.904;2023-05-20T00:11:35;4.00;;;3.70;;
11839;SDS011;5979;50.800;4.904;2023-05-20T00:14:01;3.80;;;3.47;;
11839;SDS011;5979;50.800;4.904;2023-05-20T00:16:26;4.05;;;3.75;;
11839;SDS011;5979;50.800;4.904;2023-05-20T00:18:52;6.25;;;3.97;;
11839;SDS011;5979;50.800;4.904;2023-05-20T00:21:18;4.00;;;3.67;;
11839;SDS011;5979;50.800;4.904;2023-05-20T00:23:43;4.10;;;3.50;;
11839;SDS011;5979;50.800;4.904;2023-05-20T00:26:09;3.78;;;3.42;;
11839;SDS011;5979;50.800;4.904;2023-05-20T00:28:35;5.20;;;4.03;;
11839;SDS011;5979;50.800;4.904;2023-05-20T00:31:00;4.13;;;3.85;;
11839;SDS011;5979;50.800;4.904;2023-05-20T00:33:26;3.70;;;3.40;;
11839;SDS011;5979;50.800;4.904;2023-05-20T00:35:52;3.63;;;3.33;;
11839;SDS011;5979;50.800;4.904;2023-05-20T00:38:17;5.20;;;4.30;;
11839;SDS011;5979;50.800;4.904;2023-05-20T00:40:43;3.88;;;3.45;;
11839;SDS011;5979;50.800;4.904;2023-05-20T00:43:09;4.50;;;4.10;;
11839;SDS011;5979;50.800;4.904;2023-05-20T00:45:35;3.97;;;3.58;;
11839;SDS011;5979;50.800;4.904;2023-05-20T00:48:02;3.72;;;3.35;;
11839;SDS011;5979;50.800;4.904;2023-05-20T00:50:28;4.40;;;3.63;;
11839;SDS011;5979;50.800;4.904;2023-05-20T00:52:54;4.72;;;3.78;;
11839;SDS011;5979;50.800;4.904;2023-05-20T00:55:20;4.05;;;3.55;;
11839;SDS011;5979;50.800;4.904;2023-05-20T00:57:47;3.28;;;2.97;;
11839;SDS011;5979;50.800;4.904;2023-05-20T01:00:13;5.15;;;3.50;;
11839;SDS011;5979;50.800;4.904;2023-05-20T01:02:39;5.43;;;3.58;;
11839;SDS011;5979;50.800;4.904;2023-05-20T01:05:05;3.55;;;3.30;;
11839;SDS011;5979;50.800;4.904;2023-05-20T01:07:31;3.95;;;3.63;;
11839;SDS011;5979;50.800;4.904;2023-05-20T01:09:57;4.28;;;3.65;;
11839;SDS011;5979;50.800;4.904;2023-05-20T01:12:25;3.67;;;3.38;;
11839;SDS011;5979;50.800;4.904;2023-05-20T01:15:04;3.67;;;3.38;;
11839;SDS011;5979;50.800;4.904;2023-05-20T01:17:32;3.53;;;3.30;;
11839;SDS011;5979;50.800;4.904;2023-05-20T01:20:03;3.42;;;3.20;;
11839;SDS011;5979;50.800;4.904;2023-05-20T01:22:32;3.47;;;3.28;;
11839;SDS011;5979;50.800;4.904;2023-05-20T01:25:00;3.28;;;3.03;;
11839;SDS011;5979;50.800;4.904;2023-05-20T01:27:27;3.60;;;3.40;;
11839;SDS011;5979;50.800;4.904;2023-05-20T01:29:54;3.60;;;3.22;;
11839;SDS011;5979;50.800;4.904;2023-05-20T01:32:36;3.60;;;3.25;;
11839;SDS011;5979;50.800;4.904;2023-05-20T01:35:05;3.60;;;3.40;;
11839;SDS011;5979;50.800;4.904;2023-05-20T01:37:31;3.30;;;3.10;;
11839;SDS011;5979;50.800;4.904;2023-05-20T01:40:02;4.95;;;3.63;;
11839;SDS011;5979;50.800;4.904;2023-05-20T01:42:29;3.80;;;3.15;;
11839;SDS011;5979;50.800;4.904;2023-05-20T01:44:55;3.55;;;3.25;;
11839;SDS011;5979;50.800;4.904;2023-05-20T01:47:21;4.32;;;3.45;;
11839;SDS011;5979;50.800;4.904;2023-05-20T01:49:46;4.30;;;3.50;;
11839;SDS011;5979;50.800;4.904;2023-05-20T01:52:13;4.72;;;3.25;;
11839;SDS011;5979;50.800;4.904;2023-05-20T01:54:39;4.90;;;3.38;;
11839;SDS011;5979;50.800;4.904;2023-05-20T01:57:05;4.05;;;3.10;;
11839;SDS011;5979;50.800;4.904;2023-05-20T01:59:31;3.50;;;3.20;;
11839;SDS011;5979;50.800;4.904;2023-05-20T02:01:56;3.10;;;2.90;;
11839;SDS011;5979;50.800;4.904;2023-05-20T02:04:22;4.38;;;3.25;;
11839;SDS011;5979;50.800;4.904;2023-05-20T02:06:48;3.83;;;2.92;;
11839;SDS011;5979;50.800;4.904;2023-05-20T02:09:13;4.20;;;3.22;;
11839;SDS011;5979;50.800;4.904;2023-05-20T02:11:39;3.40;;;3.20;;
11839;SDS011;5979;50.800;4.904;2023-05-20T02:14:05;3.60;;;3.30;;
11839;SDS011;5979;50.800;4.904;2023-05-20T02:16:31;3.50;;;3.20;;
11839;SDS011;5979;50.800;4.904;2023-05-20T02:18:56;3.17;;;2.90;;
11839;SDS011;5979;50.800;4.904;2023-05-20T02:21:22;4.45;;;3.42;;
11839;SDS011;5979;50.800;4.904;2023-05-20T02:23:49;3.83;;;3.33;;
11839;SDS011;5979;50.800;4.904;2023-05-20T02:26:15;3.33;;;3.03;;
11839;SDS011;5979;50.800;4.904;2023-05-20T02:28:41;3.65;;;3.35;;
11839;SDS011;5979;50.800;4.904;2023-05-20T02:31:10;4.13;;;3.30;;
11839;SDS011;5979;50.800;4.904;2023-05-20T02:33:37;4.85;;;3.72;;
11839;SDS011;5979;50.800;4.904;2023-05-20T02:36:02;4.82;;;3.55;;
11839;SDS011;5979;50.800;4.904;2023-05-20T02:38:28;5.70;;;3.22;;
11839;SDS011;5979;50.800;4.904;2023-05-20T02:40:56;3.78;;;3.22;;
11839;SDS011;5979;50.800;4.904;2023-05-20T02:43:23;3.28;;;3.08;;
11839;SDS011;5979;50.800;4.904;2023-05-20T02:45:49;3.58;;;3.13;;
11839;SDS011;5979;50.800;4.904;2023-05-20T02:48:15;5.40;;;3.60;;
11839;SDS011;5979;50.800;4.904;2023-05-20T02:50:41;3.22;;;3.00;;
11839;SDS011;5979;50.800;4.904;2023-05-20T02:53:06;3.40;;;3.10;;
11839;SDS011;5979;50.800;4.904;2023-05-20T02:55:33;3.65;;;3.35;;
11839;SDS011;5979;50.800;4.904;2023-05-20T02:57:59;3.55;;;3.15;;
11839;SDS011;5979;50.800;4.904;2023-05-20T03:00:25;4.68;;;3.10;;
11839;SDS011;5979;50.800;4.904;2023-05-20T03:02:54;3.70;;;3.40;;
11839;SDS011;5979;50.800;4.904;2023-05-20T03:05:20;3.20;;;3.05;;
11839;SDS011;5979;50.800;4.904;2023-05-20T03:07:47;4.03;;;3.00;;
11839;SDS011;5979;50.800;4.904;2023-05-20T03:10:14;6.93;;;3.42;;
11839;SDS011;5979;50.800;4.904;2023-05-20T03:12:40;3.42;;;3.13;;
11839;SDS011;5979;50.800;4.904;2023-05-20T03:15:06;3.60;;;3.30;;
11839;SDS011;5979;50.800;4.904;2023-05-20T03:17:32;4.80;;;3.42;;
11839;SDS011;5979;50.800;4.904;2023-05-20T03:19:57;4.95;;;2.92;;
11839;SDS011;5979;50.800;4.904;2023-05-20T03:22:23;4.03;;;3.60;;
11839;SDS011;5979;50.800;4.904;2023-05-20T03:24:49;3.70;;;3.40;;
11839;SDS011;5979;50.800;4.904;2023-05-20T03:27:16;3.30;;;3.10;;
11839;SDS011;5979;50.800;4.904;2023-05-20T03:29:42;4.47;;;3.28;;
11839;SDS011;5979;50.800;4.904;2023-05-20T03:32:08;5.85;;;3.47;;
11839;SDS011;5979;50.800;4.904;2023-05-20T03:34:34;3.80;;;3.50;;
11839;SDS011;5979;50.800;4.904;2023-05-20T03:36:59;4.00;;;3.60;;
11839;SDS011;5979;50.800;4.904;2023-05-20T03:39:25;4.07;;;3.65;;
11839;SDS011;5979;50.800;4.904;2023-05-20T03:41:51;3.47;;;3.17;;
11839;SDS011;5979;50.800;4.904;2023-05-20T03:44:16;6.50;;;3.65;;
11839;SDS011;5979;50.800;4.904;2023-05-20T03:46:43;4.05;;;3.53;;
11839;SDS011;5979;50.800;4.904;2023-05-20T03:49:09;3.55;;;3.20;;
11839;SDS011;5979;50.800;4.904;2023-05-20T03:51:34;4.03;;;3.35;;
11839;SDS011;5979;50.800;4.904;2023-05-20T03:54:00;4.00;;;3.50;;
11839;SDS011;5979;50.800;4.904;2023-05-20T03:56:26;8.27;;;3.55;;
11839;SDS011;5979;50.800;4.904;2023-05-20T03:58:51;5.28;;;3.80;;
11839;SDS011;5979;50.800;4.904;2023-05-20T04:01:17;4.13;;;3.35;;
11839;SDS011;5979;50.800;4.904;2023-05-20T04:03:43;5.20;;;4.15;;
11839;SDS011;5979;50.800;4.904;2023-05-20T04:06:09;4.07;;;3.60;;
11839;SDS011;5979;50.800;4.904;2023-05-20T04:08:35;4.18;;;3.80;;
11839;SDS011;5979;50.800;4.904;2023-05-20T04:11:01;5.90;;;3.90;;
11839;SDS011;5979;50.800;4.904;2023-05-20T04:13:27;4.22;;;3.92;;
11839;SDS011;5979;50.800;4.904;2023-05-20T04:15:52;4.22;;;3.50;;
11839;SDS011;5979;50.800;4.904;2023-05-20T04:18:18;4.50;;;4.10;;
11839;SDS011;5979;50.800;4.904;2023-05-20T04:20:44;3.78;;;3.40;;
11839;SDS011;5979;50.800;4.904;2023-05-20T04:23:10;4.55;;;3.60;;
11839;SDS011;5979;50.800;4.904;2023-05-20T04:25:36;4.55;;;3.85;;
11839;SDS011;5979;50.800;4.904;2023-05-20T04:28:02;5.18;;;4.57;;
11839;SDS011;5979;50.800;4.904;2023-05-20T04:30:28;4.53;;;3.85;;
11839;SDS011;5979;50.800;4.904;2023-05-20T04:32:57;3.95;;;3.65;;
11839;SDS011;5979;50.800;4.904;2023-05-20T04:35:23;3.47;;;3.17;;
11839;SDS011;5979;50.800;4.904;2023-05-20T04:37:50;5.75;;;4.20;;
11839;SDS011;5979;50.800;4.904;2023-05-20T04:40:18;4.05;;;3.72;;
11839;SDS011;5979;50.800;4.904;2023-05-20T04:42:45;8.52;;;4.13;;
11839;SDS011;5979;50.800;4.904;2023-05-20T04:45:10;4.50;;;3.55;;
11839;SDS011;5979;50.800;4.904;2023-05-20T04:47:37;4.35;;;3.40;;
11839;SDS011;5979;50.800;4.904;2023-05-20T04:50:07;5.60;;;4.13;;
11839;SDS011;5979;50.800;4.904;2023-05-20T04:52:37;3.78;;;3.47;;
11839;SDS011;5979;50.800;4.904;2023-05-20T04:55:06;4.10;;;3.67;;
11839;SDS011;5979;50.800;4.904;2023-05-20T04:57:34;4.05;;;3.65;;
11839;SDS011;5979;50.800;4.904;2023-05-20T05:00:02;5.93;;;3.95;;
11839;SDS011;5979;50.800;4.904;2023-05-20T05:02:31;6.38;;;3.38;;
11839;SDS011;5979;50.800;4.904;2023-05-20T05:04:57;3.72;;;3.40;;
11839;SDS011;5979;50.800;4.904;2023-05-20T05:07:23;5.05;;;4.25;;
11839;SDS011;5979;50.800;4.904;2023-05-20T05:09:48;4.45;;;3.95;;
11839;SDS011;5979;50.800;4.904;2023-05-20T05:12:14;4.38;;;3.17;;
11839;SDS011;5979;50.800;4.904;2023-05-20T05:14:40;4.50;;;3.38;;
11839;SDS011;5979;50.800;4.904;2023-05-20T05:17:05;3.83;;;3.53;;
11839;SDS011;5979;50.800;4.904;2023-05-20T05:19:31;3.22;;;3.03;;
11839;SDS011;5979;50.800;4.904;2023-05-20T05:21:57;7.03;;;3.83;;
11839;SDS011;5979;50.800;4.904;2023-05-20T05:24:22;5.03;;;3.50;;
11839;SDS011;5979;50.800;4.904;2023-05-20T05:26:51;4.80;;;3.92;;
11839;SDS011;5979;50.800;4.904;2023-05-20T05:29:18;6.45;;;3.95;;
11839;SDS011;5979;50.800;4.904;2023-05-20T05:31:44;5.60;;;4.18;;
11839;SDS011;5979;50.800;4.904;2023-05-20T05:34:10;5.43;;;3.83;;
11839;SDS011;5979;50.800;4.904;2023-05-20T05:36:37;5.30;;;3.63;;
11839;SDS011;5979;50.800;4.904;2023-05-20T05:39:04;7.15;;;3.88;;
11839;SDS011;5979;50.800;4.904;2023-05-20T05:41:30;5.32;;;4.03;;
11839;SDS011;5979;50.800;4.904;2023-05-20T05:43:55;4.35;;;3.80;;
11839;SDS011;5979;50.800;4.904;2023-05-20T05:46:22;7.22;;;3.65;;
11839;SDS011;5979;50.800;4.904;2023-05-20T05:48:47;4.78;;;4.03;;
11839;SDS011;5979;50.800;4.904;2023-05-20T05:51:14;5.03;;;4.45;;
11839;SDS011;5979;50.800;4.904;2023-05-20T05:53:40;5.72;;;4.20;;
11839;SDS011;5979;50.800;4.904;2023-05-20T05:56:06;7.22;;;4.20;;
11839;SDS011;5979;50.800;4.904;2023-05-20T05:58:32;7.80;;;4.63;;
11839;SDS011;5979;50.800;4.904;2023-05-20T06:00:58;5.70;;;4.10;;
11839;SDS011;5979;50.800;4.904;2023-05-20T06:03:23;5.95;;;4.00;;
11839;SDS011;5979;50.800;4.904;2023-05-20T06:05:49;7.53;;;4.75;;
11839;SDS011;5979;50.800;4.904;2023-05-20T06:08:14;5.07;;;4.35;;
11839;SDS011;5979;50.800;4.904;2023-05-20T06:10:40;5.05;;;4.60;;
11839;SDS011;5979;50.800;4.904;2023-05-20T06:13:10;5.00;;;4.47;;
11839;SDS011;5979;50.800;4.904;2023-05-20T06:15:36;4.75;;;4.40;;
11839;SDS011;5979;50.800;4.904;2023-05-20T06:18:03;4.53;;;4.13;;
11839;SDS011;5979;50.800;4.904;2023-05-20T06:20:29;6.40;;;4.50;;
11839;SDS011;5979;50.800;4.904;2023-05-20T06:22:55;5.13;;;4.25;;
11839;SDS011;5979;50.800;4.904;2023-05-20T06:25:20;4.32;;;3.92;;
11839;SDS011;5979;50.800;4.904;2023-05-20T06:27:47;4.63;;;4.22;;
11839;SDS011;5979;50.800;4.904;2023-05-20T06:30:13;4.65;;;3.97;;
11839;SDS011;5979;50.800;4.904;2023-05-20T06:32:38;5.45;;;4.65;;
11839;SDS011;5979;50.800;4.904;2023-05-20T06:35:04;4.38;;;3.97;;
11839;SDS011;5979;50.800;4.904;2023-05-20T06:37:30;4.53;;;4.13;;
11839;SDS011;5979;50.800;4.904;2023-05-20T06:39:56;4.80;;;4.30;;
11839;SDS011;5979;50.800;4.904;2023-05-20T06:42:21;4.65;;;4.25;;
11839;SDS011;5979;50.800;4.904;2023-05-20T06:44:47;4.80;;;4.40;;
11839;SDS011;5979;50.800;4.904;2023-05-20T06:47:13;7.38;;;4.22;;
11839;SDS011;5979;50.800;4.904;2023-05-20T06:49:43;5.10;;;4.57;;
11839;SDS011;5979;50.800;4.904;2023-05-20T06:52:09;4.55;;;3.88;;
11839;SDS011;5979;50.800;4.904;2023-05-20T06:54:36;4.60;;;4.30;;
11839;SDS011;5979;50.800;4.904;2023-05-20T06:57:05;4.95;;;4.45;;
11839;SDS011;5979;50.800;4.904;2023-05-20T06:59:32;4.28;;;3.88;;
11839;SDS011;5979;50.800;4.904;2023-05-20T07:01:59;4.28;;;3.97;;
11839;SDS011;5979;50.800;4.904;2023-05-20T07:04:25;4.38;;;3.97;;
11839;SDS011;5979;50.800;4.904;2023-05-20T07:06:51;4.35;;;3.95;;
11839;SDS011;5979;50.800;4.904;2023-05-20T07:09:17;6.07;;;4.45;;
11839;SDS011;5979;50.800;4.904;2023-05-20T07:11:43;4.80;;;4.30;;
11839;SDS011;5979;50.800;4.904;2023-05-20T07:14:09;5.22;;;4.78;;
11839;SDS011;5979;50.800;4.904;2023-05-20T07:16:35;4.30;;;3.95;;
11839;SDS011;5979;50.800;4.904;2023-05-20T07:19:01;4.40;;;4.10;;
11839;SDS011;5979;50.800;4.904;2023-05-20T07:21:27;4.75;;;4.22;;
11839;SDS011;5979;50.800;4.904;2023-05-20T07:23:53;5.32;;;4.68;;
11839;SDS011;5979;50.800;4.904;2023-05-20T07:26:18;4.40;;;4.00;;
11839;SDS011;5979;50.800;4.904;2023-05-20T07:28:45;5.55;;;4.68;;
11839;SDS011;5979;50.800;4.904;2023-05-20T07:31:11;4.57;;;4.28;;
11839;SDS011;5979;50.800;4.904;2023-05-20T07:33:37;4.15;;;3.90;;
11839;SDS011;5979;50.800;4.904;2023-05-20T07:36:03;4.97;;;3.88;;
11839;SDS011;5979;50.800;4.904;2023-05-20T07:38:29;4.57;;;4.20;;
11839;SDS011;5979;50.800;4.904;2023-05-20T07:40:54;4.38;;;4.07;;
11839;SDS011;5979;50.800;4.904;2023-05-20T07:43:20;5.03;;;4.55;;
11839;SDS011;5979;50.800;4.904;2023-05-20T07:45:46;6.72;;;4.28;;
11839;SDS011;5979;50.800;4.904;2023-05-20T07:48:12;4.82;;;4.43;;
11839;SDS011;5979;50.800;4.904;2023-05-20T07:50:38;4.90;;;4.05;;
11839;SDS011;5979;50.800;4.904;2023-05-20T07:53:04;5.13;;;4.40;;
11839;SDS011;5979;50.800;4.904;2023-05-20T07:55:32;4.40;;;4.00;;
11839;SDS011;5979;50.800;4.904;2023-05-20T07:58:00;5.80;;;3.90;;
11839;SDS011;5979;50.800;4.904;2023-05-20T08:00:25;4.30;;;3.90;;
11839;SDS011;5979;50.800;4.904;2023-05-20T08:02:51;6.95;;;4.22;;
11839;SDS011;5979;50.800;4.904;2023-05-20T08:05:17;4.88;;;4.47;;
11839;SDS011;5979;50.800;4.904;2023-05-20T08:07:42;4.18;;;3.88;;
11839;SDS011;5979;50.800;4.904;2023-05-20T08:10:08;4.65;;;4.18;;
11839;SDS011;5979;50.800;4.904;2023-05-20T08:12:34;5.03;;;3.78;;
11839;SDS011;5979;50.800;4.904;2023-05-20T08:14:59;3.88;;;3.55;;
11839;SDS011;5979;50.800;4.904;2023-05-20T08:17:25;4.55;;;3.63;;
11839;SDS011;5979;50.800;4.904;2023-05-20T08:19:51;4.82;;;4.22;;
11839;SDS011;5979;50.800;4.904;2023-05-20T08:22:16;5.00;;;3.80;;
11839;SDS011;5979;50.800;4.904;2023-05-20T08:24:42;5.43;;;3.95;;
11839;SDS011;5979;50.800;4.904;2023-05-20T08:27:07;4.15;;;3.50;;
11839;SDS011;5979;50.800;4.904;2023-05-20T08:29:33;3.83;;;3.60;;
11839;SDS011;5979;50.800;4.904;2023-05-20T08:31:59;4.80;;;3.38;;
11839;SDS011;5979;50.800;4.904;2023-05-20T08:34:24;3.75;;;3.20;;
11839;SDS011;5979;50.800;4.904;2023-05-20T08:36:50;3.80;;;3.50;;
11839;SDS011;5979;50.800;4.904;2023-05-20T08:39:16;4.05;;;3.55;;
11839;SDS011;5979;50.800;4.904;2023-05-20T08:41:42;4.38;;;3.60;;
11839;SDS011;5979;50.800;4.904;2023-05-20T08:44:10;6.68;;;4.32;;
11839;SDS011;5979;50.800;4.904;2023-05-20T08:46:36;4.10;;;3.70;;
11839;SDS011;5979;50.800;4.904;2023-05-20T08:49:03;3.47;;;3.17;;
11839;SDS011;5979;50.800;4.904;2023-05-20T08:51:29;8.50;;;3.83;;
11839;SDS011;5979;50.800;4.904;2023-05-20T08:53:58;3.85;;;3.42;;
11839;SDS011;5979;50.800;4.904;2023-05-20T08:56:24;7.50;;;4.22;;
11839;SDS011;5979;50.800;4.904;2023-05-20T08:58:51;6.43;;;3.60;;
11839;SDS011;5979;50.800;4.904;2023-05-20T09:01:17;4.53;;;3.70;;
11839;SDS011;5979;50.800;4.904;2023-05-20T09:03:43;6.45;;;4.03;;
11839;SDS011;5979;50.800;4.904;2023-05-20T09:06:09;3.97;;;3.65;;
11839;SDS011;5979;50.800;4.904;2023-05-20T09:08:35;5.03;;;4.55;;
11839;SDS011;5979;50.800;4.904;2023-05-20T09:11:01;5.70;;;4.05;;
11839;SDS011;5979;50.800;4.904;2023-05-20T09:13:28;6.38;;;3.97;;
11839;SDS011;5979;50.800;4.904;2023-05-20T09:15:55;9.30;;;5.28;;
11839;SDS011;5979;50.800;4.904;2023-05-20T09:18:23;4.47;;;3.90;;
11839;SDS011;5979;50.800;4.904;2023-05-20T09:20:50;4.28;;;3.88;;
11839;SDS011;5979;50.800;4.904;2023-05-20T09:23:19;6.10;;;3.80;;
11839;SDS011;5979;50.800;4.904;2023-05-20T09:25:48;4.05;;;3.85;;
11839;SDS011;5979;50.800;4.904;2023-05-20T09:28:15;5.05;;;4.55;;
11839;SDS011;5979;50.800;4.904;2023-05-20T09:30:43;4.65;;;4.25;;
11839;SDS011;5979;50.800;4.904;2023-05-20T09:33:10;4.80;;;4.28;;
11839;SDS011;5979;50.800;4.904;2023-05-20T09:35:36;4.18;;;3.78;;
11839;SDS011;5979;50.800;4.904;2023-05-20T09:38:02;4.55;;;4.18;;
11839;SDS011;5979;50.800;4.904;2023-05-20T09:40:30;6.07;;;4.25;;
11839;SDS011;5979;50.800;4.904;2023-05-20T09:42:56;4.55;;;4.15;;
11839;SDS011;5979;50.800;4.904;2023-05-20T09:45:25;4.97;;;4.50;;
11839;SDS011;5979;50.800;4.904;2023-05-20T09:47:52;4.00;;;3.70;;
11839;SDS011;5979;50.800;4.904;2023-05-20T09:50:19;4.38;;;3.45;;
11839;SDS011;5979;50.800;4.904;2023-05-20T09:52:45;4.25;;;3.85;;
11839;SDS011;5979;50.800;4.904;2023-05-20T09:55:12;5.63;;;3.85;;
11839;SDS011;5979;50.800;4.904;2023-05-20T09:57:39;4.20;;;3.80;;
11839;SDS011;5979;50.800;4.904;2023-05-20T10:00:06;4.32;;;3.92;;
11839;SDS011;5979;50.800;4.904;2023-05-20T10:02:37;6.03;;;4.13;;
11839;SDS011;5979;50.800;4.904;2023-05-20T10:05:06;4.32;;;4.03;;
11839;SDS011;5979;50.800;4.904;2023-05-20T10:10:56;6.55;;;4.40;;
11839;SDS011;5979;50.800;4.904;2023-05-20T10:13:48;4.60;;;4.20;;
11839;SDS011;5979;50.800;4.904;2023-05-20T10:19:32;4.70;;;4.07;;
11839;SDS011;5979;50.800;4.904;2023-05-20T10:22:02;4.50;;;3.97;;
11839;SDS011;5979;50.800;4.904;2023-05-20T10:24:36;4.47;;;4.07;;
11839;SDS011;5979;50.800;4.904;2023-05-20T10:27:07;4.82;;;4.18;;
11839;SDS011;5979;50.800;4.904;2023-05-20T10:32:08;4.90;;;4.50;;
11839;SDS011;5979;50.800;4.904;2023-05-20T10:34:43;5.63;;;4.90;;
11839;SDS011;5979;50.800;4.904;2023-05-20T10:37:20;4.70;;;4.40;;
11839;SDS011;5979;50.800;4.904;2023-05-20T10:42:49;4.80;;;4.43;;
11839;SDS011;5979;50.800;4.904;2023-05-20T10:45:25;4.78;;;4.38;;
11839;SDS011;5979;50.800;4.904;2023-05-20T10:47:53;5.38;;;4.30;;
11839;SDS011;5979;50.800;4.904;2023-05-20T10:50:41;5.80;;;4.22;;
11839;SDS011;5979;50.800;4.904;2023-05-20T10:53:13;4.60;;;4.20;;
11839;SDS011;5979;50.800;4.904;2023-05-20T10:55:39;8.57;;;4.25;;
11839;SDS011;5979;50.800;4.904;2023-05-20T10:58:13;4.53;;;4.20;;
11839;SDS011;5979;50.800;4.904;2023-05-20T11:00:39;5.00;;;4.60;;
11839;SDS011;5979;50.800;4.904;2023-05-20T11:03:05;6.10;;;4.38;;
11839;SDS011;5979;50.800;4.904;2023-05-20T11:05:31;4.35;;;4.05;;
11839;SDS011;5979;50.800;4.904;2023-05-20T11:08:01;4.55;;;4.22;;
11839;SDS011;5979;50.800;4.904;2023-05-20T11:10:27;10.13;;;4.80;;
11839;SDS011;5979;50.800;4.904;2023-05-20T11:12:53;4.45;;;4.05;;
11839;SDS011;5979;50.800;4.904;2023-05-20T11:15:21;4.38;;;4.07;;
11839;SDS011;5979;50.800;4.904;2023-05-20T11:17:55;4.55;;;4.15;;
11839;SDS011;5979;50.800;4.904;2023-05-20T11:20:23;5.55;;;5.07;;
11839;SDS011;5979;50.800;4.904;2023-05-20T11:22:50;5.50;;;5.00;;
11839;SDS011;5979;50.800;4.904;2023-05-20T11:25:16;4.70;;;4.18;;
11839;SDS011;5979;50.800;4.904;2023-05-20T11:27:43;5.40;;;4.90;;
11839;SDS011;5979;50.800;4.904;2023-05-20T11:30:09;4.90;;;4.40;;
11839;SDS011;5979;50.800;4.904;2023-05-20T11:32:37;5.15;;;4.65;;
11839;SDS011;5979;50.800;4.904;2023-05-20T11:35:02;5.00;;;4.50;;
11839;SDS011;5979;50.800;4.904;2023-05-20T11:37:29;4.25;;;3.83;;
11839;SDS011;5979;50.800;4.904;2023-05-20T11:40:02;4.82;;;4.30;;
11839;SDS011;5979;50.800;4.904;2023-05-20T11:42:31;4.85;;;4.20;;
11839;SDS011;5979;50.800;4.904;2023-05-20T11:44:58;4.28;;;3.78;;
11839;SDS011;5979;50.800;4.904;2023-05-20T11:47:24;4.38;;;3.92;;
11839;SDS011;5979;50.800;4.904;2023-05-20T11:49:51;5.38;;;4.20;;
11839;SDS011;5979;50.800;4.904;2023-05-20T11:52:17;5.55;;;3.45;;
11839;SDS011;5979;50.800;4.904;2023-05-20T11:54:43;4.60;;;3.95;;
11839;SDS011;5979;50.800;4.904;2023-05-20T11:57:10;4.20;;;3.88;;
11839;SDS011;5979;50.800;4.904;2023-05-20T11:59:36;4.55;;;4.00;;
11839;SDS011;5979;50.800;4.904;2023-05-20T12:02:01;5.85;;;3.72;;
11839;SDS011;5979;50.800;4.904;2023-05-20T12:04:27;5.40;;;3.80;;
11839;SDS011;5979;50.800;4.904;2023-05-20T12:06:53;3.88;;;3.60;;
11839;SDS011;5979;50.800;4.904;2023-05-20T12:09:19;4.25;;;3.95;;
11839;SDS011;5979;50.800;4.904;2023-05-20T12:11:46;3.53;;;3.28;;
11839;SDS011;5979;50.800;4.904;2023-05-20T12:14:12;3.53;;;3.33;;
11839;SDS011;5979;50.800;4.904;2023-05-20T12:16:37;4.65;;;4.25;;
11839;SDS011;5979;50.800;4.904;2023-05-20T12:19:03;4.00;;;3.70;;
11839;SDS011;5979;50.800;4.904;2023-05-20T12:21:30;3.63;;;3.30;;
11839;SDS011;5979;50.800;4.904;2023-05-20T12:23:57;5.10;;;3.70;;
11839;SDS011;5979;50.800;4.904;2023-05-20T12:26:23;4.05;;;3.60;;
11839;SDS011;5979;50.800;4.904;2023-05-20T12:28:53;3.88;;;3.58;;
11839;SDS011;5979;50.800;4.904;2023-05-20T12:31:19;3.50;;;3.30;;
11839;SDS011;5979;50.800;4.904;2023-05-20T12:33:45;3.28;;;3.08;;
11839;SDS011;5979;50.800;4.904;2023-05-20T12:36:11;3.58;;;3.20;;
11839;SDS011;5979;50.800;4.904;2023-05-20T12:38:37;5.32;;;3.50;;
11839;SDS011;5979;50.800;4.904;2023-05-20T12:41:03;4.03;;;3.63;;
11839;SDS011;5979;50.800;4.904;2023-05-20T12:43:28;5.22;;;3.50;;
11839;SDS011;5979;50.800;4.904;2023-05-20T12:45:54;3.88;;;3.55;;
11839;SDS011;5979;50.800;4.904;2023-05-20T12:48:20;3.38;;;3.17;;
11839;SDS011;5979;50.800;4.904;2023-05-20T12:50:46;3.75;;;3.45;;
11839;SDS011;5979;50.800;4.904;2023-05-20T12:53:11;3.83;;;3.63;;
11839;SDS011;5979;50.800;4.904;2023-05-20T12:55:37;3.80;;;3.42;;
11839;SDS011;5979;50.800;4.904;2023-05-20T12:58:03;5.47;;;3.22;;
11839;SDS011;5979;50.800;4.904;2023-05-20T13:00:29;3.20;;;2.90;;
11839;SDS011;5979;50.800;4.904;2023-05-20T13:02:55;3.35;;;3.08;;
11839;SDS011;5979;50.800;4.904;2023-05-20T13:05:21;3.42;;;3.22;;
11839;SDS011;5979;50.800;4.904;2023-05-20T13:07:47;3.70;;;3.40;;
11839;SDS011;5979;50.800;4.904;2023-05-20T13:10:13;3.95;;;3.35;;
11839;SDS011;5979;50.800;4.904;2023-05-20T13:12:38;3.72;;;3.42;;
11839;SDS011;5979;50.800;4.904;2023-05-20T13:15:09;3.70;;;3.35;;
11839;SDS011;5979;50.800;4.904;2023-05-20T13:17:36;4.80;;;3.35;;
11839;SDS011;5979;50.800;4.904;2023-05-20T13:20:02;3.58;;;3.33;;
11839;SDS011;5979;50.800;4.904;2023-05-20T13:22:28;3.90;;;3.30;;
11839;SDS011;5979;50.800;4.904;2023-05-20T13:24:54;3.70;;;3.40;;
11839;SDS011;5979;50.800;4.904;2023-05-20T13:27:19;4.78;;;3.30;;
11839;SDS011;5979;50.800;4.904;2023-05-20T13:29:45;3.50;;;3.13;;
11839;SDS011;5979;50.800;4.904;2023-05-20T13:32:11;3.53;;;3.33;;
11839;SDS011;5979;50.800;4.904;2023-05-20T13:34:36;3.97;;;3.58;;
11839;SDS011;5979;50.800;4.904;2023-05-20T13:37:03;4.18;;;3.45;;
11839;SDS011;5979;50.800;4.904;2023-05-20T13:39:29;3.45;;;3.25;;
11839;SDS011;5979;50.800;4.904;2023-05-20T13:41:54;3.83;;;3.55;;
11839;SDS011;5979;50.800;4.904;2023-05-20T13:44:20;3.97;;;3.78;;
11839;SDS011;5979;50.800;4.904;2023-05-20T13:46:46;4.72;;;4.43;;
11839;SDS011;5979;50.800;4.904;2023-05-20T13:49:11;3.90;;;3.60;;
11839;SDS011;5979;50.800;4.904;2023-05-20T13:51:37;3.78;;;3.58;;
11839;SDS011;5979;50.800;4.904;2023-05-20T13:54:03;4.10;;;3.80;;
11839;SDS011;5979;50.800;4.904;2023-05-20T13:56:30;3.97;;;3.78;;
11839;SDS011;5979;50.800;4.904;2023-05-20T13:58:56;5.95;;;3.75;;
11839;SDS011;5979;50.800;4.904;2023-05-20T14:01:21;4.50;;;3.80;;
11839;SDS011;5979;50.800;4.904;2023-05-20T14:03:47;3.88;;;3.60;;
11839;SDS011;5979;50.800;4.904;2023-05-20T14:06:13;5.00;;;4.50;;
11839;SDS011;5979;50.800;4.904;2023-05-20T14:08:42;4.10;;;3.78;;
11839;SDS011;5979;50.800;4.904;2023-05-20T14:11:09;4.80;;;4.15;;
11839;SDS011;5979;50.800;4.904;2023-05-20T14:13:35;3.55;;;3.35;;
11839;SDS011;5979;50.800;4.904;2023-05-20T14:16:01;4.78;;;4.47;;
11839;SDS011;5979;50.800;4.904;2023-05-20T14:18:27;5.65;;;3.90;;
11839;SDS011;5979;50.800;4.904;2023-05-20T14:20:52;4.30;;;4.00;;
11839;SDS011;5979;50.800;4.904;2023-05-20T14:23:18;4.25;;;3.90;;
11839;SDS011;5979;50.800;4.904;2023-05-20T14:25:44;5.05;;;4.75;;
11839;SDS011;5979;50.800;4.904;2023-05-20T14:28:09;4.57;;;4.22;;
11839;SDS011;5979;50.800;4.904;2023-05-20T14:30:35;5.50;;;5.10;;
11839;SDS011;5979;50.800;4.904;2023-05-20T14:33:01;5.03;;;4.72;;
11839;SDS011;5979;50.800;4.904;2023-05-20T14:35:26;4.82;;;4.43;;
11839;SDS011;5979;50.800;4.904;2023-05-20T14:37:52;5.40;;;4.85;;
11839;SDS011;5979;50.800;4.904;2023-05-20T14:40:18;6.60;;;5.25;;
11839;SDS011;5979;50.800;4.904;2023-05-20T14:42:44;5.50;;;5.00;;
11839;SDS011;5979;50.800;4.904;2023-05-20T14:45:09;4.97;;;4.57;;
11839;SDS011;5979;50.800;4.904;2023-05-20T14:47:35;5.40;;;5.03;;
11839;SDS011;5979;50.800;4.904;2023-05-20T14:50:04;5.70;;;5.28;;
11839;SDS011;5979;50.800;4.904;2023-05-20T14:52:30;6.35;;;5.72;;
11839;SDS011;5979;50.800;4.904;2023-05-20T14:54:56;6.15;;;5.65;;
11839;SDS011;5979;50.800;4.904;2023-05-20T14:57:21;6.15;;;5.65;;
11839;SDS011;5979;50.800;4.904;2023-05-20T14:59:47;5.97;;;5.57;;
11839;SDS011;5979;50.800;4.904;2023-05-20T15:02:15;6.18;;;5.65;;
11839;SDS011;5979;50.800;4.904;2023-05-20T15:04:42;8.23;;;5.60;;
11839;SDS011;5979;50.800;4.904;2023-05-20T15:07:10;5.82;;;5.43;;
11839;SDS011;5979;50.800;4.904;2023-05-20T15:09:36;6.72;;;6.15;;